Station Historical Data
Daily Summary for October 24, 2017 Units:  Metric    English   Both
« Previous Day
Next Day »
Daily Weekly Monthly Yearly Custom
  High: Low: Average:
Temperature: 18.8 °C 7.5 °C 12.5 °C
Dew Point: 10.6 °C 3.7 °C 7.4 °C
Humidity: 93% 40% 74%
Wind Speed: 18.5km/h 0km/h 6.9km/h
Wind Gust: 18.5km/h - -
Wind- - West
Pressure: 1016.5 hPa 1012.8 hPa -
Precipitation: 0 mm    
Historical Graphs
 
 
Tabular Data for October 24, 2017
Time Temperature Dew Point Pressure Wind Wind Speed Wind Gust Humidity Rainfall Rate (Hourly) solar Conditions
00:03 12.4 °C 10.3 °C 1014.8 hPa West 14.8 km/h 14.8 km/h 87% 0 mm WeatherDisplay:10.37 W/m2 CLR
00:08 12.4 °C 10.4 °C 1014.8 hPa West 14.8 km/h 14.8 km/h 88% 0 mm WeatherDisplay:10.37 W/m2 CLR
00:13 12.3 °C 10.3 °C 1014.8 hPa West 14.8 km/h 14.8 km/h 88% 0 mm WeatherDisplay:10.37 W/m2 CLR
00:18 12.2 °C 10.3 °C 1014.8 hPa West 14.8 km/h 14.8 km/h 88% 0 mm WeatherDisplay:10.37 W/m2 CLR
00:19 12.2 °C 10.3 °C 1014.8 hPa West 14.8 km/h 14.8 km/h 88% 0 mm WeatherDisplay:10.37 W/m2 CLR
00:24 12.2 °C 10.4 °C 1014.8 hPa West 14.8 km/h 14.8 km/h 89% 0 mm WeatherDisplay:10.37 W/m2 CLR
00:29 12.2 °C 10.4 °C 1015.1 hPa West 14.8 km/h 14.8 km/h 89% 0 mm WeatherDisplay:10.37 W/m2 CLR
00:30 10.7 °C 8.4 °C 1013.8 hPa Calm     86% 0 mm WeatherDisplay:10.37 W/m2
00:34 12.2 °C 10.4 °C 1014.8 hPa West 14.8 km/h 14.8 km/h 89% 0 mm WeatherDisplay:10.37 W/m2 CLR
00:39 12.2 °C 10.4 °C 1014.8 hPa West 14.8 km/h 14.8 km/h 89% 0 mm WeatherDisplay:10.37 W/m2 CLR
00:44 12.2 °C 10.4 °C 1014.8 hPa West 14.8 km/h 14.8 km/h 89% 0 mm WeatherDisplay:10.37 W/m2 CLR
00:49 12.2 °C 10.4 °C 1014.8 hPa West 14.8 km/h 14.8 km/h 89% 0 mm WeatherDisplay:10.37 W/m2 CLR
00:54 12.2 °C 10.4 °C 1014.8 hPa West 14.8 km/h 14.8 km/h 89% 0 mm WeatherDisplay:10.37 W/m2 CLR
00:59 12.2 °C 10.4 °C 1014.8 hPa West 14.8 km/h 14.8 km/h 89% 0 mm WeatherDisplay:10.37 W/m2 CLR
01:04 12.1 °C 10.3 °C 1014.8 hPa WNW 11.1 km/h 11.1 km/h 89% 0 mm WeatherDisplay:10.37 W/m2 CLR
01:09 12.1 °C 10.3 °C 1014.4 hPa WNW 11.1 km/h 11.1 km/h 89% 0 mm WeatherDisplay:10.37 W/m2 CLR
01:14 12 °C 10.2 °C 1014.4 hPa WNW 11.1 km/h 11.1 km/h 89% 0 mm WeatherDisplay:10.37 W/m2 CLR
01:19 11.9 °C 10.2 °C 1014.4 hPa WNW 11.1 km/h 11.1 km/h 89% 0 mm WeatherDisplay:10.37 W/m2 CLR
01:24 11.9 °C 10.2 °C 1014.1 hPa WNW 11.1 km/h 11.1 km/h 89% 0 mm WeatherDisplay:10.37 W/m2 CLR
01:29 11.8 °C 10.2 °C 1014.4 hPa WNW 11.1 km/h 11.1 km/h 90% 0 mm WeatherDisplay:10.37 W/m2 CLR
01:34 11.8 °C 10.2 °C 1014.4 hPa WNW 11.1 km/h 11.1 km/h 90% 0 mm WeatherDisplay:10.37 W/m2 CLR
01:39 11.7 °C 10.1 °C 1014.4 hPa WNW 11.1 km/h 11.1 km/h 90% 0 mm WeatherDisplay:10.37 W/m2 CLR
01:44 11.6 °C 10 °C 1014.4 hPa WNW 11.1 km/h 11.1 km/h 90% 0 mm WeatherDisplay:10.37 W/m2 CLR
01:49 11.6 °C 9.9 °C 1014.4 hPa WNW 11.1 km/h 11.1 km/h 90% 0 mm WeatherDisplay:10.37 W/m2 CLR
01:53 11.6 °C 10.1 °C 1014.8 hPa WNW 11.1 km/h 11.1 km/h 91% 0 mm WeatherDisplay:10.37 W/m2 CLR
01:58 11.6 °C 10.1 °C 1014.8 hPa WNW 11.1 km/h 11.1 km/h 91% 0 mm WeatherDisplay:10.37 W/m2 CLR
02:03 11.5 °C 10.1 °C 1014.8 hPa WNW 9.3 km/h 9.3 km/h 91% 0 mm WeatherDisplay:10.37 W/m2 CLR
02:08 11.4 °C 10 °C 1014.4 hPa WNW 9.3 km/h 9.3 km/h 91% 0 mm WeatherDisplay:10.37 W/m2 CLR
02:13 11.4 °C 9.9 °C 1014.4 hPa WNW 9.3 km/h 9.3 km/h 91% 0 mm WeatherDisplay:10.37 W/m2 CLR
02:18 11.3 °C 9.9 °C 1014.4 hPa WNW 9.3 km/h 9.3 km/h 91% 0 mm WeatherDisplay:10.37 W/m2 CLR
02:23 11.3 °C 9.9 °C 1014.4 hPa WNW 9.3 km/h 9.3 km/h 91% 0 mm WeatherDisplay:10.37 W/m2 CLR
02:28 11.3 °C 9.9 °C 1014.4 hPa WNW 9.3 km/h 9.3 km/h 91% 0 mm WeatherDisplay:10.37 W/m2 CLR
02:33 11.4 °C 10.1 °C 1014.4 hPa WNW 9.3 km/h 9.3 km/h 92% 0 mm WeatherDisplay:10.37 W/m2 CLR
02:38 11.4 °C 10.2 °C 1014.4 hPa WNW 9.3 km/h 9.3 km/h 92% 0 mm WeatherDisplay:10.37 W/m2 CLR
02:43 11.4 °C 10.2 °C 1014.4 hPa WNW 9.3 km/h 9.3 km/h 92% 0 mm WeatherDisplay:10.37 W/m2 CLR
02:49 11.4 °C 10.2 °C 1014.4 hPa WNW 9.3 km/h 9.3 km/h 92% 0 mm WeatherDisplay:10.37 W/m2 CLR
02:54 11.4 °C 10.2 °C 1014.4 hPa WNW 9.3 km/h 9.3 km/h 92% 0 mm WeatherDisplay:10.37 W/m2 CLR
02:59 11.4 °C 10 °C 1014.4 hPa WNW 9.3 km/h 9.3 km/h 91% 0 mm WeatherDisplay:10.37 W/m2 CLR
03:04 11.4 °C 10 °C 1014.4 hPa WNW 11.1 km/h 11.1 km/h 91% 0 mm WeatherDisplay:10.37 W/m2 CLR
03:09 11.4 °C 9.9 °C 1014.1 hPa WNW 11.1 km/h 11.1 km/h 91% 0 mm WeatherDisplay:10.37 W/m2 CLR
03:14 11.4 °C 9.9 °C 1014.1 hPa WNW 11.1 km/h 11.1 km/h 91% 0 mm WeatherDisplay:10.37 W/m2 CLR
03:19 11.3 °C 9.9 °C 1014.1 hPa WNW 11.1 km/h 11.1 km/h 91% 0 mm WeatherDisplay:10.37 W/m2 CLR
03:24 11.3 °C 9.9 °C 1014.1 hPa WNW 11.1 km/h 11.1 km/h 91% 0 mm WeatherDisplay:10.37 W/m2 CLR
03:29 11.3 °C 9.9 °C 1014.1 hPa WNW 11.1 km/h 11.1 km/h 91% 0 mm WeatherDisplay:10.37 W/m2 CLR
03:34 11.2 °C 9.8 °C 1014.1 hPa WNW 11.1 km/h 11.1 km/h 91% 0 mm WeatherDisplay:10.37 W/m2 CLR
03:39 11.1 °C 9.7 °C 1014.1 hPa WNW 11.1 km/h 11.1 km/h 91% 0 mm WeatherDisplay:10.37 W/m2 CLR
03:49 10.9 °C 9.5 °C 1014.1 hPa WNW 11.1 km/h 11.1 km/h 91% 0 mm WeatherDisplay:10.37 W/m2 CLR
03:54 10.8 °C 9.4 °C 1014.1 hPa WNW 11.1 km/h 11.1 km/h 91% 0 mm WeatherDisplay:10.37 W/m2 CLR
03:59 10.7 °C 9.3 °C 1013.8 hPa WNW 11.1 km/h 11.1 km/h 91% 0 mm WeatherDisplay:10.37 W/m2 CLR
04:04 10.7 °C 9.4 °C 1014.1 hPa West 16.7 km/h 16.7 km/h 92% 0 mm WeatherDisplay:10.37 W/m2 CLR
04:09 10.6 °C 9.3 °C 1013.8 hPa West 16.7 km/h 16.7 km/h 92% 0 mm WeatherDisplay:10.37 W/m2 CLR
04:14 10.5 °C 9.3 °C 1013.8 hPa West 16.7 km/h 16.7 km/h 92% 0 mm WeatherDisplay:10.37 W/m2 CLR
04:19 10.4 °C 9.2 °C 1013.8 hPa West 16.7 km/h 16.7 km/h 92% 0 mm WeatherDisplay:10.37 W/m2 CLR
04:24 10.3 °C 9.1 °C 1013.8 hPa West 16.7 km/h 16.7 km/h 92% 0 mm WeatherDisplay:10.37 W/m2 CLR
04:29 10.3 °C 9.1 °C 1013.8 hPa West 16.7 km/h 16.7 km/h 92% 0 mm WeatherDisplay:10.37 W/m2 CLR
04:34 10.2 °C 9 °C 1013.8 hPa West 16.7 km/h 16.7 km/h 92% 0 mm WeatherDisplay:10.37 W/m2 CLR
04:39 10.2 °C 9 °C 1013.4 hPa West 16.7 km/h 16.7 km/h 92% 0 mm WeatherDisplay:10.37 W/m2 CLR
04:44 10.2 °C 8.9 °C 1013.4 hPa West 16.7 km/h 16.7 km/h 92% 0 mm WeatherDisplay:10.37 W/m2 CLR
04:49 10.1 °C 8.8 °C 1013.4 hPa West 16.7 km/h 16.7 km/h 92% 0 mm WeatherDisplay:10.37 W/m2 CLR
04:54 9.9 °C 8.7 °C 1013.4 hPa West 16.7 km/h 16.7 km/h 92% 0 mm WeatherDisplay:10.37 W/m2 CLR
04:59 9.9 °C 8.7 °C 1013.4 hPa West 16.7 km/h 16.7 km/h 92% 0 mm WeatherDisplay:10.37 W/m2 CLR
05:04 9.8 °C 8.6 °C 1013.4 hPa West 13 km/h 13 km/h 92% 0 mm WeatherDisplay:10.37 W/m2 CLR
05:09 9.7 °C 8.5 °C 1013.1 hPa West 13 km/h 13 km/h 92% 0 mm WeatherDisplay:10.37 W/m2 CLR
05:14 9.7 °C 8.4 °C 1013.1 hPa West 13 km/h 13 km/h 92% 0 mm WeatherDisplay:10.37 W/m2 CLR
05:19 9.7 °C 8.4 °C 1013.1 hPa West 13 km/h 13 km/h 92% 0 mm WeatherDisplay:10.37 W/m2 CLR
05:29 9.6 °C 8.4 °C 1013.1 hPa West 13 km/h 13 km/h 92% 0 mm WeatherDisplay:10.37 W/m2 CLR
05:35 9.6 °C 8.4 °C 1013.1 hPa West 13 km/h 13 km/h 92% 0 mm WeatherDisplay:10.37 W/m2 CLR
05:40 9.6 °C 8.3 °C 1012.8 hPa West 12.9 km/h 12.9 km/h 92% 0 mm WeatherDisplay:10.37 W/m2 CLR
05:45 9.5 °C 8.3 °C 1012.8 hPa West 12.9 km/h 12.9 km/h 92% 0 mm WeatherDisplay:10.37 W/m2 CLR
05:50 9.4 °C 8.2 °C 1013.1 hPa West 12.9 km/h 12.9 km/h 92% 0 mm WeatherDisplay:10.37 W/m2 CLR
05:55 9.4 °C 8.2 °C 1013.1 hPa West 13 km/h 13 km/h 92% 0 mm WeatherDisplay:10.37 W/m2 CLR
06:00 9.4 °C 8.4 °C 1013.1 hPa West 13 km/h 13 km/h 93% 0 mm WeatherDisplay:10.37 W/m2 CLR
06:05 9.4 °C 8.3 °C 1013.1 hPa West 13 km/h 13 km/h 93% 0 mm WeatherDisplay:10.37 W/m2 CLR
06:10 9.4 °C 8.3 °C 1013.1 hPa West 13 km/h 13 km/h 93% 0 mm WeatherDisplay:10.37 W/m2 CLR
06:15 9.4 °C 8.3 °C 1013.1 hPa West 13 km/h 13 km/h 93% 0 mm WeatherDisplay:10.37 W/m2 CLR
06:20 9.4 °C 8.3 °C 1013.1 hPa West 13 km/h 13 km/h 93% 0 mm WeatherDisplay:10.37 W/m2 CLR
06:25 9.4 °C 8.4 °C 1013.1 hPa West 13 km/h 13 km/h 93% 0 mm WeatherDisplay:10.37 W/m2 CLR
06:35 9.4 °C 8.4 °C 1013.1 hPa West 13 km/h 13 km/h 93% 0 mm WeatherDisplay:10.37 W/m2 CLR
06:40 9.5 °C 8.4 °C 1013.1 hPa West 13 km/h 13 km/h 93% 0 mm WeatherDisplay:10.37 W/m2 CLR
06:45 9.4 °C 8.4 °C 1013.1 hPa West 13 km/h 13 km/h 93% 0 mm WeatherDisplay:10.37 W/m2 CLR
06:50 9.4 °C 8.4 °C 1013.1 hPa West 13 km/h 13 km/h 93% 0 mm WeatherDisplay:10.37 W/m2 CLR
06:55 9.4 °C 8.3 °C 1013.1 hPa West 13 km/h 13 km/h 93% 0 mm WeatherDisplay:10.37 W/m2 CLR
07:00 9.3 °C 8.1 °C 1013.1 hPa West 13 km/h 13 km/h 92% 0 mm WeatherDisplay:10.37 W/m2 CLR
07:05 9.3 °C 8.1 °C 1013.1 hPa SSW 7.4 km/h 7.4 km/h 92% 0 mm WeatherDisplay:10.37 W/m2 CLR
07:10 9.4 °C 8.2 °C 1013.1 hPa SSW 7.4 km/h 7.4 km/h 92% 0 mm WeatherDisplay:10.37 W/m2 CLR
07:15 9.5 °C 8.3 °C 1013.1 hPa SSW 7.4 km/h 7.4 km/h 92% 0 mm WeatherDisplay:10.37 W/m2 CLR
07:20 9.6 °C 8.4 °C 1013.1 hPa SSW 7.4 km/h 7.4 km/h 92% 0 mm WeatherDisplay:10.37 W/m2 CLR
07:25 9.8 °C 8.2 °C 1013.1 hPa SSW 7.4 km/h 7.4 km/h 90% 0 mm WeatherDisplay:10.37 W/m2 CLR
07:30 10 °C 8.3 °C 1013.1 hPa SSW 7.4 km/h 7.4 km/h 89% 0 mm WeatherDisplay:10.37 W/m2 CLR
07:35 10.1 °C 8.2 °C 1013.1 hPa SSW 7.4 km/h 7.4 km/h 88% 0 mm WeatherDisplay:10.37 W/m2 CLR
07:40 10.2 °C 8.3 °C 1013.4 hPa SSW 7.4 km/h 7.4 km/h 88% 0 mm WeatherDisplay:10.37 W/m2 CLR
07:41 10.2 °C 8.3 °C 1013.4 hPa SSW 7.4 km/h 7.4 km/h 88% 0 mm WeatherDisplay:10.37 W/m2 CLR
07:46 10.3 °C 8.2 °C 1013.4 hPa SSW 7.4 km/h 7.4 km/h 87% 0 mm WeatherDisplay:10.37 W/m2 CLR
07:51 10.4 °C 8.2 °C 1013.4 hPa SSW 7.4 km/h 7.4 km/h 86% 0 mm WeatherDisplay:10.37 W/m2 CLR
07:56 10.5 °C 8.3 °C 1013.4 hPa SSW 7.4 km/h 7.4 km/h 86% 0 mm WeatherDisplay:10.37 W/m2 CLR
08:01 10.5 °C 8.3 °C 1013.4 hPa WSW 7.4 km/h 7.4 km/h 86% 0 mm WeatherDisplay:10.37 W/m2 CLR
08:06 10.5 °C 8.3 °C 1013.4 hPa WSW 7.4 km/h 7.4 km/h 86% 0 mm WeatherDisplay:10.37 W/m2 CLR
08:11 10.4 °C 8.2 °C 1013.4 hPa WSW 7.4 km/h 7.4 km/h 86% 0 mm WeatherDisplay:10.37 W/m2 CLR
08:16 10.4 °C 8.2 °C 1013.8 hPa WSW 7.4 km/h 7.4 km/h 86% 0 mm WeatherDisplay:10.37 W/m2 CLR
08:21 10.5 °C 8.3 °C 1013.8 hPa WSW 7.4 km/h 7.4 km/h 86% 0 mm WeatherDisplay:10.37 W/m2 CLR
08:26 10.6 °C 8.4 °C 1013.8 hPa WSW 7.4 km/h 7.4 km/h 86% 0 mm WeatherDisplay:10.37 W/m2 CLR
08:32 10.7 °C 8.3 °C 1013.8 hPa WSW 7.4 km/h 7.4 km/h 85% 0 mm WeatherDisplay:10.37 W/m2 CLR
08:37 10.9 °C 8.4 °C 1013.8 hPa WSW 7.4 km/h 7.4 km/h 85% 0 mm WeatherDisplay:10.37 W/m2 CLR
08:42 11.1 °C 8.4 °C 1013.8 hPa WSW 7.4 km/h 7.4 km/h 84% 0 mm WeatherDisplay:10.37 W/m2 CLR
08:47 11.2 °C 8.6 °C 1014.1 hPa WSW 7.4 km/h 7.4 km/h 84% 0 mm WeatherDisplay:10.37 W/m2 CLR
08:52 11.3 °C 8.7 °C 1014.1 hPa WSW 7.4 km/h 7.4 km/h 84% 0 mm WeatherDisplay:10.37 W/m2 CLR
08:57 11.4 °C 8.8 °C 1014.1 hPa WSW 7.4 km/h 7.4 km/h 84% 0 mm WeatherDisplay:10.37 W/m2 CLR
09:02 11.6 °C 8.9 °C 1014.1 hPa West 16.7 km/h 16.7 km/h 84% 0 mm WeatherDisplay:10.37 W/m2 CLR
09:08 11.7 °C 8.9 °C 1014.4 hPa West 16.7 km/h 16.7 km/h 83% 0 mm WeatherDisplay:10.37 W/m2 CLR
09:12 11.7 °C 8.7 °C 1014.4 hPa West 16.7 km/h 16.7 km/h 82% 0 mm WeatherDisplay:10.37 W/m2 CLR
09:17 11.8 °C 8.8 °C 1014.4 hPa West 16.7 km/h 16.7 km/h 82% 0 mm WeatherDisplay:10.37 W/m2 CLR
09:22 11.9 °C 8.9 °C 1014.4 hPa West 16.7 km/h 16.7 km/h 82% 0 mm WeatherDisplay:10.37 W/m2 CLR
09:27 12.1 °C 8.9 °C 1014.4 hPa West 16.7 km/h 16.7 km/h 81% 0 mm WeatherDisplay:10.37 W/m2 CLR
09:32 12.2 °C 9 °C 1014.4 hPa West 16.7 km/h 16.7 km/h 81% 0 mm WeatherDisplay:10.37 W/m2 CLR
09:38 12.2 °C 9 °C 1014.8 hPa West 16.7 km/h 16.7 km/h 81% 0 mm WeatherDisplay:10.37 W/m2 CLR
09:43 12.3 °C 8.9 °C 1014.8 hPa West 16.7 km/h 16.7 km/h 80% 0 mm WeatherDisplay:10.37 W/m2 CLR
09:48 12.3 °C 9.2 °C 1014.8 hPa West 16.7 km/h 16.7 km/h 81% 0 mm WeatherDisplay:10.37 W/m2 CLR
09:53 12.5 °C 9.3 °C 1014.8 hPa West 16.7 km/h 16.7 km/h 81% 0 mm WeatherDisplay:10.37 W/m2 CLR
09:58 12.7 °C 9.3 °C 1014.8 hPa West 16.7 km/h 16.7 km/h 80% 0 mm WeatherDisplay:10.37 W/m2 CLR
10:03 12.9 °C 9.5 °C 1014.8 hPa WNW 18.5 km/h 18.5 km/h 80% 0 mm WeatherDisplay:10.37 W/m2 CLR
10:08 12.9 °C 9.2 °C 1014.8 hPa WNW 18.5 km/h 18.5 km/h 78% 0 mm WeatherDisplay:10.37 W/m2 CLR
10:13 13 °C 9.3 °C 1014.8 hPa WNW 18.5 km/h 18.5 km/h 78% 0 mm WeatherDisplay:10.37 W/m2 CLR
10:18 13.1 °C 9.6 °C 1014.8 hPa WNW 18.5 km/h 18.5 km/h 79% 0 mm WeatherDisplay:10.37 W/m2 CLR
10:23 13.2 °C 9.3 °C 1014.8 hPa WNW 18.5 km/h 18.5 km/h 77% 0 mm WeatherDisplay:10.37 W/m2 CLR
10:28 13.3 °C 9.6 °C 1014.8 hPa WNW 18.5 km/h 18.5 km/h 78% 0 mm WeatherDisplay:10.37 W/m2 CLR
10:33 13.4 °C 9.5 °C 1014.8 hPa WNW 18.5 km/h 18.5 km/h 77% 0 mm WeatherDisplay:10.37 W/m2 CLR
10:38 13.8 °C 10 °C 1014.8 hPa WNW 18.5 km/h 18.5 km/h 78% 0 mm WeatherDisplay:10.37 W/m2 CLR
10:43 14.3 °C 10.1 °C 1014.8 hPa WNW 18.5 km/h 18.5 km/h 76% 0 mm WeatherDisplay:10.37 W/m2 CLR
10:48 14.7 °C 10.3 °C 1014.8 hPa WNW 18.5 km/h 18.5 km/h 75% 0 mm WeatherDisplay:10.37 W/m2 CLR
10:53 14.9 °C 10.1 °C 1014.8 hPa WNW 18.5 km/h 18.5 km/h 73% 0 mm WeatherDisplay:10.37 W/m2 CLR
10:58 15.2 °C 10.2 °C 1014.8 hPa WNW 18.5 km/h 18.5 km/h 72% 0 mm WeatherDisplay:10.37 W/m2 CLR
11:03 15.6 °C 10.3 °C 1014.8 hPa WNW 18.5 km/h 18.5 km/h 71% 0 mm WeatherDisplay:10.37 W/m2 CLR
11:09 15.8 °C 10.2 °C 1014.8 hPa WNW 18.5 km/h 18.5 km/h 69% 0 mm WeatherDisplay:10.37 W/m2 CLR
11:14 16 °C 10.6 °C 1014.8 hPa WNW 16.7 km/h 16.7 km/h 70% 0 mm WeatherDisplay:10.37 W/m2 CLR
11:19 16.2 °C 10.5 °C 1014.8 hPa WNW 16.7 km/h 16.7 km/h 69% 0 mm WeatherDisplay:10.37 W/m2 CLR
11:24 16.4 °C 10 °C 1014.8 hPa WNW 16.7 km/h 16.7 km/h 66% 0 mm WeatherDisplay:10.37 W/m2 CLR
11:29 16.6 °C 10.6 °C 1014.8 hPa NNW 16.7 km/h 16.7 km/h 68% 0 mm WeatherDisplay:10.37 W/m2 CLR
11:34 16.7 °C 10.3 °C 1014.8 hPa SSW 1.9 km/h 1.9 km/h 66% 0 mm WeatherDisplay:10.37 W/m2 CLR
11:39 16.8 °C 10.2 °C 1014.8 hPa West 3.7 km/h   65% 0 mm WeatherDisplay:10.37 W/m2 CLR
11:44 16.9 °C 10.3 °C 1014.8 hPa SSE 3.7 km/h 3.7 km/h 65% 0 mm WeatherDisplay:10.37 W/m2 CLR
11:49 16.9 °C 10.1 °C 1014.8 hPa South 3.7 km/h 3.7 km/h 64% 0 mm WeatherDisplay:10.37 W/m2 CLR
11:54 17.1 °C 9.9 °C 1014.8 hPa West 5 km/h   63% 0 mm WeatherDisplay:10.37 W/m2 CLR
11:59 16.9 °C 10.1 °C 1014.8 hPa NW 1.9 km/h   64% 0 mm WeatherDisplay:10.37 W/m2 CLR
12:04 16.9 °C 9.3 °C 1014.8 hPa SW 3.7 km/h 3.7 km/h 61% 0 mm WeatherDisplay:10.37 W/m2 SCT
12:09 16.7 °C 9.4 °C 1014.8 hPa WNW 1.9 km/h 1.9 km/h 62% 0 mm WeatherDisplay:10.37 W/m2 SCT
12:14 16.8 °C 9.3 °C 1014.4 hPa West 1.9 km/h 1.9 km/h 61% 0 mm WeatherDisplay:10.37 W/m2 SCT
12:19 16.9 °C 9.8 °C 1014.4 hPa NW 1.9 km/h   63% 0 mm WeatherDisplay:10.37 W/m2 SCT
12:24 17.1 °C 9.8 °C 1014.4 hPa South 5.6 km/h 5.6 km/h 62% 0 mm WeatherDisplay:10.37 W/m2 SCT
12:29 17.1 °C 9.8 °C 1014.4 hPa SSW 5 km/h 5 km/h 62% 0 mm WeatherDisplay:10.37 W/m2 SCT
12:34 17.2 °C 9.1 °C 1014.1 hPa SSW 3.2 km/h 3.2 km/h 59% 0 mm WeatherDisplay:10.37 W/m2 SCT
12:39 17 °C 7.9 °C 1014.1 hPa SW 5.6 km/h 5.6 km/h 55% 0 mm WeatherDisplay:10.37 W/m2 SCT
12:45 17.1 °C 8.4 °C 1014.1 hPa Calm   8 km/h 57% 0 mm WeatherDisplay:10.37 W/m2 SCT
12:50 17.2 °C 8.8 °C 1014.1 hPa Calm   8 km/h 58% 0 mm WeatherDisplay:10.37 W/m2 SCT
12:55 17.3 °C 7.7 °C 1014.1 hPa WNW 1.6 km/h 9.7 km/h 53% 0 mm WeatherDisplay:10.37 W/m2 SCT
13:00 17 °C 6.5 °C 1014.1 hPa WNW 1.6 km/h 9.7 km/h 50% 0 mm WeatherDisplay:10.37 W/m2 SCT
13:05 16.8 °C 6 °C 1014.1 hPa West 1.6 km/h 8 km/h 49% 0 mm WeatherDisplay:10.37 W/m2 SCT
13:10 16.7 °C 6.8 °C 1014.1 hPa WNW 1.6 km/h 3.2 km/h 52% 0 mm WeatherDisplay:10.37 W/m2 SCT
13:15 16.8 °C 6.8 °C 1014.1 hPa WNW 1.6 km/h 4.8 km/h 52% 0 mm WeatherDisplay:10.37 W/m2 SCT
13:20 16.9 °C 7.6 °C 1014.1 hPa Calm   4.8 km/h 54% 0 mm WeatherDisplay:10.37 W/m2 SCT
13:25 17.2 °C 6.4 °C 1014.1 hPa WNW 1.6 km/h 8 km/h 49% 0 mm WeatherDisplay:10.37 W/m2 SCT
13:30 17.4 °C 6.6 °C 1014.1 hPa NW 5.6 km/h 5.6 km/h 49% 0 mm WeatherDisplay:10.37 W/m2 SCT
13:35 17.4 °C 6.3 °C 1014.1 hPa West 1.6 km/h 8 km/h 48% 0 mm WeatherDisplay:10.37 W/m2 SCT
13:40 17.4 °C 5.7 °C 1014.1 hPa WNW 1.6 km/h 8 km/h 46% 0 mm WeatherDisplay:10.37 W/m2 SCT
13:45 17.6 °C 6.1 °C 1013.8 hPa Calm   4.8 km/h 47% 0 mm WeatherDisplay:10.37 W/m2 SCT
13:50 17.7 °C 6.9 °C 1013.8 hPa NW 3.7 km/h 3.7 km/h 49% 0 mm WeatherDisplay:10.37 W/m2 SCT
13:55 17.9 °C 5.4 °C 1013.8 hPa WSW 3.2 km/h 8 km/h 44% 0 mm WeatherDisplay:10.37 W/m2 SCT
14:00 17.9 °C 6.1 °C 1013.4 hPa West 1.6 km/h 4.8 km/h 46% 0 mm WeatherDisplay:10.37 W/m2 SCT
14:05 18.2 °C 5.8 °C 1013.4 hPa WNW 1.9 km/h 1.9 km/h 44% 0 mm WeatherDisplay:10.37 W/m2 SCT
14:10 18.5 °C 7.3 °C 1013.4 hPa SE 1.9 km/h   48% 0 mm WeatherDisplay:10.37 W/m2 SCT
14:15 18.8 °C 5.6 °C 1013.4 hPa West 3.2 km/h 11.3 km/h 42% 0 mm WeatherDisplay:10.37 W/m2 SCT
14:20 18.8 °C 6 °C 1013.4 hPa West 1.6 km/h 4.8 km/h 43% 0 mm WeatherDisplay:10.37 W/m2 SCT
14:25 18.4 °C 4.6 °C 1013.4 hPa West 1.6 km/h 4.8 km/h 40% 0 mm WeatherDisplay:10.37 W/m2 SCT
14:30 18.2 °C 5 °C 1013.1 hPa WNW 1.6 km/h 4.8 km/h 42% 0 mm WeatherDisplay:10.37 W/m2 SCT
14:35 17.8 °C 5.1 °C 1013.1 hPa WNW 3.7 km/h 3.7 km/h 43% 0 mm WeatherDisplay:10.37 W/m2 SCT
14:40 17.9 °C 5.8 °C 1013.1 hPa WSW 7.4 km/h 7.4 km/h 45% 0 mm WeatherDisplay:10.37 W/m2 SCT
14:46 17.9 °C 5.8 °C 1013.1 hPa WNW 3.7 km/h 3.7 km/h 45% 0 mm WeatherDisplay:10.37 W/m2 SCT
14:51 17.9 °C 6.4 °C 1013.1 hPa WSW 1.9 km/h 1.9 km/h 47% 0 mm WeatherDisplay:10.37 W/m2 SCT
14:56 18 °C 5.9 °C 1013.1 hPa North 7.4 km/h 7.4 km/h 45% 0 mm WeatherDisplay:10.37 W/m2 SCT
15:01 17.9 °C 6.2 °C 1013.1 hPa WNW 1.9 km/h 1.9 km/h 46% 0 mm WeatherDisplay:10.37 W/m2 SCT
15:06 17.8 °C 6.1 °C 1013.1 hPa NW 3.2 km/h 3.2 km/h 46% 0 mm WeatherDisplay:10.37 W/m2 SCT
15:11 17.5 °C 6.1 °C 1012.8 hPa WNW 3.2 km/h 3.2 km/h 47% 0 mm WeatherDisplay:10.37 W/m2 SCT
15:16 17 °C 5.6 °C 1012.8 hPa West 3.7 km/h 3.7 km/h 47% 0 mm WeatherDisplay:10.37 W/m2 SCT
15:21 16.9 °C 6.2 °C 1012.8 hPa West 3.7 km/h 3.7 km/h 49% 0 mm WeatherDisplay:10.37 W/m2 SCT
15:26 16.8 °C 5.4 °C 1012.8 hPa WNW 1.9 km/h 1.9 km/h 47% 0 mm WeatherDisplay:10.37 W/m2 SCT
15:32 16.8 °C 6.1 °C 1012.8 hPa WNW 1.9 km/h 1.9 km/h 49% 0 mm WeatherDisplay:10.37 W/m2 SCT
15:37 16.7 °C 5.3 °C 1012.8 hPa Calm     47% 0 mm WeatherDisplay:10.37 W/m2 SCT
15:42 16.5 °C 4.8 °C 1012.8 hPa West 1.9 km/h 1.9 km/h 46% 0 mm WeatherDisplay:10.37 W/m2 SCT
15:47 16.6 °C 4.6 °C 1012.8 hPa NE 7.4 km/h 7.4 km/h 45% 0 mm WeatherDisplay:10.37 W/m2 SCT
15:52 16.7 °C 5.1 °C 1012.8 hPa WNW 3.7 km/h 3.7 km/h 46% 0 mm WeatherDisplay:10.37 W/m2 SCT
15:57 16.8 °C 4.8 °C 1012.8 hPa WNW 5.6 km/h 5.6 km/h 45% 0 mm WeatherDisplay:10.37 W/m2 SCT
16:02 16.8 °C 4.8 °C 1012.8 hPa West 1.9 km/h 1.9 km/h 45% 0 mm WeatherDisplay:10.37 W/m2 FEW
16:07 16.8 °C 4.8 °C 1012.8 hPa West 3.7 km/h   45% 0 mm WeatherDisplay:10.37 W/m2 FEW
16:12 16.8 °C 4.8 °C 1013.1 hPa WNW 1.6 km/h 2.3 km/h 45% 0 mm WeatherDisplay:10.37 W/m2 FEW
16:17 16.8 °C 4.8 °C 1013.1 hPa West 3.7 km/h   45% 0 mm WeatherDisplay:10.37 W/m2 FEW
16:23 16.7 °C 5.7 °C 1013.1 hPa ESE 3.7 km/h 3.7 km/h 48% 0 mm WeatherDisplay:10.37 W/m2 FEW
16:28 16.7 °C 5 °C 1013.1 hPa SW 1.9 km/h 1.9 km/h 46% 0 mm WeatherDisplay:10.37 W/m2 FEW
16:33 16.6 °C 5.2 °C 1013.1 hPa WSW 3.7 km/h 3.7 km/h 47% 0 mm WeatherDisplay:10.37 W/m2 FEW
16:38 16.4 °C 5.1 °C 1013.1 hPa WNW 3.7 km/h 3.7 km/h 47% 0 mm WeatherDisplay:10.37 W/m2 FEW
16:43 16.4 °C 5.4 °C 1013.1 hPa WNW 5.6 km/h 5.6 km/h 48% 0 mm WeatherDisplay:10.37 W/m2 FEW
16:48 16.4 °C 4.7 °C 1013.1 hPa WSW 1.9 km/h 1.9 km/h 46% 0 mm WeatherDisplay:10.37 W/m2 FEW
16:53 16.4 °C 4.7 °C 1013.1 hPa SSW 3.7 km/h 3.7 km/h 46% 0 mm WeatherDisplay:10.37 W/m2 FEW
16:58 16.3 °C 5 °C 1013.1 hPa SW 7.4 km/h 7.4 km/h 47% 0 mm WeatherDisplay:10.37 W/m2 FEW
17:03 16.2 °C 4.9 °C 1013.4 hPa East 1.9 km/h 1.9 km/h 47% 0 mm WeatherDisplay:10.37 W/m2 FEW
17:08 16.1 °C 4.4 °C 1013.4 hPa WSW 3.2 km/h 3.2 km/h 46% 0 mm WeatherDisplay:10.37 W/m2 FEW
17:14 15.8 °C 5.1 °C 1013.4 hPa West 3.7 km/h   49% 0 mm WeatherDisplay:10.37 W/m2 FEW
17:19 15.4 °C 4.8 °C 1013.4 hPa WNW 1.9 km/h 1.9 km/h 49% 0 mm WeatherDisplay:10.37 W/m2 FEW
17:24 15.2 °C 5.4 °C 1013.4 hPa NW 1.9 km/h   52% 0 mm WeatherDisplay:10.37 W/m2 FEW
17:29 15.1 °C 5.6 °C 1013.4 hPa Calm     53% 0 mm WeatherDisplay:10.37 W/m2 FEW
17:34 15 °C 5.8 °C 1013.4 hPa Calm     54% 0 mm WeatherDisplay:10.37 W/m2 FEW
17:39 14.8 °C 5.9 °C 1013.4 hPa Calm     55% 0 mm WeatherDisplay:10.37 W/m2 FEW
17:44 14.8 °C 6.3 °C 1013.4 hPa WNW 1.6 km/h 1.6 km/h 57% 0 mm WeatherDisplay:10.37 W/m2 FEW
17:49 14.9 °C 5.1 °C 1013.8 hPa WNW 3.7 km/h 3.7 km/h 52% 0 mm WeatherDisplay:10.37 W/m2 FEW
17:54 14.9 °C 4.3 °C 1013.8 hPa SW 1.9 km/h 1.9 km/h 49% 0 mm WeatherDisplay:10.37 W/m2 FEW
17:59 14.9 °C 4.6 °C 1013.8 hPa NNW 1.9 km/h   50% 0 mm WeatherDisplay:10.37 W/m2 FEW
18:04 14.8 °C 4.2 °C 1013.8 hPa WNW 3.7 km/h 3.7 km/h 49% 0 mm WeatherDisplay:10.37 W/m2 SCT
18:09 14.7 °C 3.8 °C 1014.1 hPa SW 3.2 km/h 3.2 km/h 48% 0 mm WeatherDisplay:10.37 W/m2 SCT
18:15 14.6 °C 4 °C 1014.1 hPa West 1.6 km/h 3.2 km/h 49% 0 mm WeatherDisplay:10.37 W/m2 SCT
18:20 14.4 °C 4.2 °C 1014.1 hPa Calm   1.6 km/h 50% 0 mm WeatherDisplay:10.37 W/m2 SCT
18:25 14.3 °C 3.7 °C 1014.1 hPa Calm   1.6 km/h 49% 0 mm WeatherDisplay:10.37 W/m2 SCT
18:30 14.2 °C 3.9 °C 1014.1 hPa Calm   3.2 km/h 50% 0 mm WeatherDisplay:10.37 W/m2 SCT
18:35 14 °C 4.8 °C 1014.1 hPa Calm   1.6 km/h 54% 0 mm WeatherDisplay:10.37 W/m2 SCT
18:40 13.7 °C 4.8 °C 1014.4 hPa Calm   3.2 km/h 55% 0 mm WeatherDisplay:10.37 W/m2 SCT
18:45 13.4 °C 4.6 °C 1014.4 hPa Calm   1.6 km/h 55% 0 mm WeatherDisplay:10.37 W/m2 SCT
18:50 13.2 °C 4.8 °C 1014.4 hPa WNW 1.6 km/h   57% 0 mm WeatherDisplay:10.37 W/m2 SCT
18:55 12.9 °C 4.9 °C 1014.4 hPa Calm   1.6 km/h 58% 0 mm WeatherDisplay:10.37 W/m2 SCT
19:00 12.7 °C 4.9 °C 1014.8 hPa Calm     59% 0 mm WeatherDisplay:10.37 W/m2 SCT
19:05 12.5 °C 5.2 °C 1014.8 hPa Calm   1.6 km/h 61% 0 mm WeatherDisplay:10.37 W/m2 SCT
19:10 12.3 °C 5.2 °C 1014.8 hPa Calm     62% 0 mm WeatherDisplay:10.37 W/m2 SCT
19:15 12.1 °C 5.1 °C 1014.8 hPa Calm     62% 0 mm WeatherDisplay:10.37 W/m2 SCT
19:20 11.9 °C 4.9 °C 1014.8 hPa Calm     62% 0 mm WeatherDisplay:10.37 W/m2 SCT
19:25 11.8 °C 5.2 °C 1015.1 hPa Calm     64% 0 mm WeatherDisplay:10.37 W/m2 SCT
19:30 11.6 °C 5.2 °C 1014.8 hPa Calm     65% 0 mm WeatherDisplay:10.37 W/m2 SCT
19:35 11.3 °C 4.9 °C 1015.1 hPa Calm     65% 0 mm WeatherDisplay:10.37 W/m2 SCT
19:40 11.1 °C 5.2 °C 1015.1 hPa Calm     67% 0 mm WeatherDisplay:10.37 W/m2 SCT
19:45 10.9 °C 5.2 °C 1014.8 hPa Calm     68% 0 mm WeatherDisplay:10.37 W/m2 SCT
19:50 10.7 °C 5.3 °C 1015.1 hPa Calm     69% 0 mm WeatherDisplay:10.37 W/m2 SCT
19:55 10.6 °C 5.3 °C 1015.1 hPa Calm     70% 0 mm WeatherDisplay:10.37 W/m2 SCT
20:00 10.4 °C 5.2 °C 1015.1 hPa Calm     70% 0 mm WeatherDisplay:10.37 W/m2 SCT
20:05 10.2 °C 5.2 °C 1015.1 hPa Calm     71% 0 mm WeatherDisplay:10.37 W/m2 BKN
20:10 10.1 °C 5.3 °C 1015.1 hPa Calm     72% 0 mm WeatherDisplay:10.37 W/m2 BKN
20:15 9.9 °C 5.3 °C 1015.1 hPa Calm     73% 0 mm WeatherDisplay:10.37 W/m2 BKN
20:20 9.8 °C 5 °C 1015.1 hPa Calm     72% 0 mm WeatherDisplay:10.37 W/m2 BKN
20:25 9.7 °C 5.3 °C 1015.1 hPa Calm     74% 0 mm WeatherDisplay:10.37 W/m2 BKN
20:30 9.6 °C 5.3 °C 1015.1 hPa Calm     75% 0 mm WeatherDisplay:10.37 W/m2 BKN
20:35 9.4 °C 5.4 °C 1015.1 hPa Calm     76% 0 mm WeatherDisplay:10.37 W/m2 BKN
20:40 9.3 °C 5.3 °C 1015.1 hPa Calm     76% 0 mm WeatherDisplay:10.37 W/m2 BKN
20:45 9.2 °C 5.3 °C 1015.5 hPa Calm     77% 0 mm WeatherDisplay:10.37 W/m2 BKN
20:50 9.1 °C 5.2 °C 1015.5 hPa Calm     77% 0 mm WeatherDisplay:10.37 W/m2 BKN
20:55 8.9 °C 5.3 °C 1015.5 hPa Calm     78% 0 mm WeatherDisplay:10.37 W/m2 BKN
21:00 8.9 °C 5.2 °C 1015.5 hPa Calm     78% 0 mm WeatherDisplay:10.37 W/m2 BKN
21:05 8.8 °C 5.3 °C 1015.5 hPa Calm     79% 0 mm WeatherDisplay:10.37 W/m2 FEW
21:10 8.7 °C 5.4 °C 1015.5 hPa Calm     80% 0 mm WeatherDisplay:10.37 W/m2 FEW
21:15 8.6 °C 5.3 °C 1015.5 hPa Calm     80% 0 mm WeatherDisplay:10.37 W/m2 FEW
21:20 8.6 °C 5.3 °C 1015.5 hPa Calm     80% 0 mm WeatherDisplay:10.37 W/m2 FEW
21:25 8.6 °C 5.4 °C 1015.5 hPa Calm     81% 0 mm WeatherDisplay:10.37 W/m2 FEW
21:30 8.5 °C 5.6 °C 1015.8 hPa Calm     82% 0 mm WeatherDisplay:10.37 W/m2 FEW
21:35 8.4 °C 5.3 °C 1015.8 hPa Calm     81% 0 mm WeatherDisplay:10.37 W/m2 FEW
21:40 8.2 °C 5 °C 1015.8 hPa Calm     80% 0 mm WeatherDisplay:10.37 W/m2 FEW
21:45 8.2 °C 5.1 °C 1015.8 hPa Calm     81% 0 mm WeatherDisplay:10.37 W/m2 FEW
21:50 8.1 °C 5.1 °C 1015.8 hPa Calm     81% 0 mm WeatherDisplay:10.37 W/m2 FEW
21:52 8.1 °C 5 °C 1015.8 hPa Calm     81% 0 mm WeatherDisplay:10.37 W/m2 FEW
21:57 8.1 °C 5.2 °C 1015.8 hPa Calm     82% 0 mm WeatherDisplay:10.37 W/m2 FEW
22:02 8 °C 4.9 °C 1016.1 hPa Calm     81% 0 mm WeatherDisplay:10.37 W/m2 FEW
22:07 7.9 °C 4.9 °C 1016.1 hPa Calm     81% 0 mm WeatherDisplay:10.37 W/m2 FEW
22:12 7.9 °C 4.8 °C 1016.1 hPa Calm     81% 0 mm WeatherDisplay:10.37 W/m2 FEW
22:17 7.8 °C 4.8 °C 1016.1 hPa Calm     81% 0 mm WeatherDisplay:10.37 W/m2 FEW
22:23 7.8 °C 4.9 °C 1015.8 hPa Calm     82% 0 mm WeatherDisplay:10.37 W/m2 FEW
22:28 7.7 °C 4.8 °C 1015.8 hPa Calm     82% 0 mm WeatherDisplay:10.37 W/m2 FEW
22:33 7.7 °C 4.9 °C 1016.1 hPa Calm     83% 0 mm WeatherDisplay:10.37 W/m2 FEW
22:38 7.6 °C 5.1 °C 1016.1 hPa Calm     84% 0 mm WeatherDisplay:10.37 W/m2 FEW
22:43 7.6 °C 5.1 °C 1016.1 hPa Calm     84% 0 mm WeatherDisplay:10.37 W/m2 FEW
22:48 7.6 °C 5 °C 1016.1 hPa Calm     84% 0 mm WeatherDisplay:10.37 W/m2 FEW
22:53 7.5 °C 4.9 °C 1016.1 hPa Calm     84% 0 mm WeatherDisplay:10.37 W/m2 FEW
22:58 7.5 °C 5.2 °C 1016.1 hPa Calm     85% 0 mm WeatherDisplay:10.37 W/m2 FEW
23:03 7.5 °C 5.2 °C 1016.1 hPa Calm     85% 0 mm WeatherDisplay:10.37 W/m2 FEW
23:09 7.6 °C 5.2 °C 1016.5 hPa Calm     85% 0 mm WeatherDisplay:10.37 W/m2 FEW
23:13 7.7 °C 5.3 °C 1016.1 hPa Calm     85% 0 mm WeatherDisplay:10.37 W/m2 FEW
23:19 7.8 °C 5.4 °C 1016.1 hPa Calm     85% 0 mm WeatherDisplay:10.37 W/m2 FEW
23:24 7.9 °C 5.6 °C 1016.5 hPa Calm     85% 0 mm WeatherDisplay:10.37 W/m2 FEW
23:29 8.1 °C 5.7 °C 1016.5 hPa Calm     85% 0 mm WeatherDisplay:10.37 W/m2 FEW
23:34 8.2 °C 5.8 °C 1016.5 hPa Calm     85% 0 mm WeatherDisplay:10.37 W/m2 FEW
23:39 8.3 °C 5.9 °C 1016.5 hPa Calm     85% 0 mm WeatherDisplay:10.37 W/m2 FEW
23:44 8.4 °C 5.9 °C 1016.5 hPa Calm     84% 0 mm WeatherDisplay:10.37 W/m2 FEW
23:49 8.5 °C 5.8 °C 1016.5 hPa Calm     83% 0 mm WeatherDisplay:10.37 W/m2 FEW
23:54 8.5 °C 5.8 °C 1016.5 hPa Calm     83% 0 mm WeatherDisplay:10.37 W/m2 FEW
23:59 8.4 °C 5.6 °C 1016.5 hPa Calm     82% 0 mm WeatherDisplay:10.37 W/m2 FEW
Piedmont Bend
Compliments of Weather Underground - 4 mb